sensor_id;sensor_type;location;lat;lon;timestamp;pressure;altitude;pressure_sealevel;temperature;humidity
39411;BME280;26579;43.238;23.124;2024-02-04T00:00:39;97357.84;;;7.70;57.28
39411;BME280;26579;43.238;23.124;2024-02-04T00:03:05;97350.28;;;7.67;57.44
39411;BME280;26579;43.238;23.124;2024-02-04T00:05:30;97351.00;;;7.69;57.74
39411;BME280;26579;43.238;23.124;2024-02-04T00:07:56;97345.09;;;7.67;57.39
39411;BME280;26579;43.238;23.124;2024-02-04T00:10:22;97342.69;;;7.64;57.90
39411;BME280;26579;43.238;23.124;2024-02-04T00:12:48;97350.84;;;7.58;58.19
39411;BME280;26579;43.238;23.124;2024-02-04T00:15:13;97350.50;;;7.50;58.48
39411;BME280;26579;43.238;23.124;2024-02-04T00:17:39;97344.00;;;7.30;58.91
39411;BME280;26579;43.238;23.124;2024-02-04T00:20:05;97348.59;;;7.39;58.75
39411;BME280;26579;43.238;23.124;2024-02-04T00:22:32;97346.91;;;7.38;59.08
39411;BME280;26579;43.238;23.124;2024-02-04T00:24:58;97348.31;;;7.44;59.01
39411;BME280;26579;43.238;23.124;2024-02-04T00:27:24;97349.59;;;7.51;58.88
39411;BME280;26579;43.238;23.124;2024-02-04T00:29:50;97345.88;;;7.55;58.89
39411;BME280;26579;43.238;23.124;2024-02-04T00:32:15;97338.94;;;7.56;58.68
39411;BME280;26579;43.238;23.124;2024-02-04T00:34:41;97340.31;;;7.61;58.45
39411;BME280;26579;43.238;23.124;2024-02-04T00:37:07;97340.31;;;7.61;58.95
39411;BME280;26579;43.238;23.124;2024-02-04T00:39:32;97333.53;;;7.59;58.88
39411;BME280;26579;43.238;23.124;2024-02-04T00:41:58;97330.47;;;7.66;58.96
39411;BME280;26579;43.238;23.124;2024-02-04T00:44:24;97325.84;;;7.71;58.85
39411;BME280;26579;43.238;23.124;2024-02-04T00:46:50;97322.84;;;7.78;58.65
39411;BME280;26579;43.238;23.124;2024-02-04T00:49:16;97315.41;;;7.86;58.46
39411;BME280;26579;43.238;23.124;2024-02-04T00:51:42;97308.88;;;7.93;58.16
39411;BME280;26579;43.238;23.124;2024-02-04T00:54:07;97312.03;;;7.98;57.98
39411;BME280;26579;43.238;23.124;2024-02-04T00:56:33;97301.03;;;8.07;58.24
39411;BME280;26579;43.238;23.124;2024-02-04T00:58:59;97297.84;;;8.16;58.10
39411;BME280;26579;43.238;23.124;2024-02-04T01:01:25;97297.75;;;8.18;58.10
39411;BME280;26579;43.238;23.124;2024-02-04T01:03:51;97294.53;;;8.27;57.77
39411;BME280;26579;43.238;23.124;2024-02-04T01:06:16;97283.00;;;8.31;58.05
39411;BME280;26579;43.238;23.124;2024-02-04T01:08:42;97291.06;;;8.41;57.87
39411;BME280;26579;43.238;23.124;2024-02-04T01:11:08;97288.88;;;8.48;57.82
39411;BME280;26579;43.238;23.124;2024-02-04T01:13:34;97278.28;;;8.51;57.30
39411;BME280;26579;43.238;23.124;2024-02-04T01:15:59;97280.44;;;8.57;57.51
39411;BME280;26579;43.238;23.124;2024-02-04T01:18:25;97272.66;;;8.57;57.33
39411;BME280;26579;43.238;23.124;2024-02-04T01:20:51;97276.59;;;8.63;57.33
39411;BME280;26579;43.238;23.124;2024-02-04T01:23:16;97278.25;;;8.64;57.35
39411;BME280;26579;43.238;23.124;2024-02-04T01:25:42;97277.97;;;8.55;57.08
39411;BME280;26579;43.238;23.124;2024-02-04T01:28:08;97285.97;;;8.52;57.86
39411;BME280;26579;43.238;23.124;2024-02-04T01:30:34;97288.75;;;8.62;57.74
39411;BME280;26579;43.238;23.124;2024-02-04T01:32:59;97289.50;;;8.64;57.74
39411;BME280;26579;43.238;23.124;2024-02-04T01:35:25;97291.44;;;8.60;57.66
39411;BME280;26579;43.238;23.124;2024-02-04T01:37:51;97291.66;;;8.57;57.96
39411;BME280;26579;43.238;23.124;2024-02-04T01:40:17;97282.31;;;8.68;57.89
39411;BME280;26579;43.238;23.124;2024-02-04T01:42:43;97287.59;;;8.66;57.83
39411;BME280;26579;43.238;23.124;2024-02-04T01:45:09;97296.13;;;8.68;57.95
39411;BME280;26579;43.238;23.124;2024-02-04T01:47:35;97285.22;;;8.63;58.09
39411;BME280;26579;43.238;23.124;2024-02-04T01:50:02;97288.84;;;8.60;58.25
39411;BME280;26579;43.238;23.124;2024-02-04T01:52:30;97287.28;;;8.58;58.61
39411;BME280;26579;43.238;23.124;2024-02-04T01:54:57;97292.31;;;8.61;58.55
39411;BME280;26579;43.238;23.124;2024-02-04T01:57:23;97288.53;;;8.65;58.24
39411;BME280;26579;43.238;23.124;2024-02-04T01:59:49;97289.97;;;8.69;58.26
39411;BME280;26579;43.238;23.124;2024-02-04T02:02:15;97289.91;;;8.71;58.23
39411;BME280;26579;43.238;23.124;2024-02-04T02:04:41;97294.13;;;8.72;57.99
39411;BME280;26579;43.238;23.124;2024-02-04T02:07:08;97295.59;;;8.76;57.87
39411;BME280;26579;43.238;23.124;2024-02-04T02:09:34;97284.69;;;8.71;57.96
39411;BME280;26579;43.238;23.124;2024-02-04T02:12:13;97277.22;;;8.79;58.12
39411;BME280;26579;43.238;23.124;2024-02-04T02:14:47;97278.97;;;8.78;58.02
39411;BME280;26579;43.238;23.124;2024-02-04T02:17:15;97276.50;;;8.77;58.29
39411;BME280;26579;43.238;23.124;2024-02-04T02:19:52;97271.72;;;8.71;58.59
39411;BME280;26579;43.238;23.124;2024-02-04T02:22:29;97273.16;;;8.75;58.23
39411;BME280;26579;43.238;23.124;2024-02-04T02:25:03;97255.84;;;8.63;58.28
39411;BME280;26579;43.238;23.124;2024-02-04T02:27:29;97255.75;;;8.64;58.96
39411;BME280;26579;43.238;23.124;2024-02-04T02:29:55;97262.38;;;8.68;58.86
39411;BME280;26579;43.238;23.124;2024-02-04T02:32:21;97241.00;;;8.65;58.74
39411;BME280;26579;43.238;23.124;2024-02-04T02:34:47;97239.31;;;8.64;58.50
39411;BME280;26579;43.238;23.124;2024-02-04T02:37:40;97252.19;;;8.78;57.51
39411;BME280;26579;43.238;23.124;2024-02-04T02:40:36;97248.44;;;8.82;57.40
39411;BME280;26579;43.238;23.124;2024-02-04T02:43:03;97253.00;;;8.78;57.24
39411;BME280;26579;43.238;23.124;2024-02-04T02:45:29;97262.13;;;8.84;56.75
39411;BME280;26579;43.238;23.124;2024-02-04T02:47:56;97259.22;;;8.89;57.17
39411;BME280;26579;43.238;23.124;2024-02-04T02:50:22;97261.09;;;8.87;57.30
39411;BME280;26579;43.238;23.124;2024-02-04T02:52:48;97245.34;;;8.77;57.36
39411;BME280;26579;43.238;23.124;2024-02-04T02:55:13;97246.56;;;8.84;57.45
39411;BME280;26579;43.238;23.124;2024-02-04T02:57:39;97231.41;;;8.78;57.41
39411;BME280;26579;43.238;23.124;2024-02-04T03:00:05;97234.22;;;8.88;57.07
39411;BME280;26579;43.238;23.124;2024-02-04T03:02:32;97241.16;;;8.87;57.15
39411;BME280;26579;43.238;23.124;2024-02-04T03:04:58;97236.69;;;8.89;56.90
39411;BME280;26579;43.238;23.124;2024-02-04T03:07:23;97239.28;;;8.89;56.86
39411;BME280;26579;43.238;23.124;2024-02-04T03:09:49;97236.81;;;8.88;57.08
39411;BME280;26579;43.238;23.124;2024-02-04T03:12:15;97232.44;;;8.88;57.35
39411;BME280;26579;43.238;23.124;2024-02-04T03:14:40;97249.56;;;8.78;57.71
39411;BME280;26579;43.238;23.124;2024-02-04T03:17:06;97245.75;;;8.71;57.59
39411;BME280;26579;43.238;23.124;2024-02-04T03:19:32;97239.00;;;8.68;57.52
39411;BME280;26579;43.238;23.124;2024-02-04T03:21:57;97228.94;;;8.64;57.42
39411;BME280;26579;43.238;23.124;2024-02-04T03:24:23;97240.69;;;8.56;57.66
39411;BME280;26579;43.238;23.124;2024-02-04T03:26:48;97240.91;;;8.53;58.20
39411;BME280;26579;43.238;23.124;2024-02-04T03:29:14;97234.25;;;8.49;57.88
39411;BME280;26579;43.238;23.124;2024-02-04T03:31:40;97225.84;;;8.46;58.19
39411;BME280;26579;43.238;23.124;2024-02-04T03:34:06;97234.69;;;8.43;58.19
39411;BME280;26579;43.238;23.124;2024-02-04T03:36:32;97240.59;;;8.45;57.86
39411;BME280;26579;43.238;23.124;2024-02-04T03:38:57;97233.75;;;8.44;57.92
39411;BME280;26579;43.238;23.124;2024-02-04T03:41:23;97228.78;;;8.41;57.83
39411;BME280;26579;43.238;23.124;2024-02-04T03:43:49;97237.59;;;8.38;58.25
39411;BME280;26579;43.238;23.124;2024-02-04T03:46:15;97224.69;;;8.37;58.01
39411;BME280;26579;43.238;23.124;2024-02-04T03:48:41;97221.56;;;8.32;58.22
39411;BME280;26579;43.238;23.124;2024-02-04T03:51:07;97235.47;;;8.31;58.23
39411;BME280;26579;43.238;23.124;2024-02-04T03:53:33;97222.94;;;8.25;58.45
39411;BME280;26579;43.238;23.124;2024-02-04T03:55:59;97231.44;;;8.27;58.60
39411;BME280;26579;43.238;23.124;2024-02-04T03:58:25;97237.69;;;8.24;58.39
39411;BME280;26579;43.238;23.124;2024-02-04T04:00:50;97246.28;;;8.25;58.47
39411;BME280;26579;43.238;23.124;2024-02-04T04:03:16;97249.28;;;8.06;59.42
39411;BME280;26579;43.238;23.124;2024-02-04T04:05:41;97251.78;;;8.07;59.18
39411;BME280;26579;43.238;23.124;2024-02-04T04:08:07;97257.69;;;8.09;58.65
39411;BME280;26579;43.238;23.124;2024-02-04T04:10:33;97263.91;;;8.20;58.60
39411;BME280;26579;43.238;23.124;2024-02-04T04:12:59;97267.84;;;8.12;58.66
39411;BME280;26579;43.238;23.124;2024-02-04T04:15:24;97268.06;;;8.22;58.33
39411;BME280;26579;43.238;23.124;2024-02-04T04:17:50;97262.59;;;8.27;58.39
39411;BME280;26579;43.238;23.124;2024-02-04T04:20:16;97271.06;;;8.29;58.32
39411;BME280;26579;43.238;23.124;2024-02-04T04:22:41;97268.59;;;8.27;58.53
39411;BME280;26579;43.238;23.124;2024-02-04T04:25:08;97266.28;;;8.23;58.46
39411;BME280;26579;43.238;23.124;2024-02-04T04:27:34;97269.41;;;8.28;58.41
39411;BME280;26579;43.238;23.124;2024-02-04T04:30:00;97255.72;;;8.26;58.75
39411;BME280;26579;43.238;23.124;2024-02-04T04:32:25;97259.16;;;8.26;58.44
39411;BME280;26579;43.238;23.124;2024-02-04T04:34:51;97258.94;;;8.16;58.97
39411;BME280;26579;43.238;23.124;2024-02-04T04:37:16;97258.09;;;8.16;58.90
39411;BME280;26579;43.238;23.124;2024-02-04T04:39:42;97273.38;;;8.21;59.08
39411;BME280;26579;43.238;23.124;2024-02-04T04:42:08;97270.44;;;8.25;58.94
39411;BME280;26579;43.238;23.124;2024-02-04T04:44:33;97249.16;;;8.20;59.01
39411;BME280;26579;43.238;23.124;2024-02-04T04:46:59;97262.59;;;8.27;59.02
39411;BME280;26579;43.238;23.124;2024-02-04T04:49:24;97263.63;;;8.24;59.05
39411;BME280;26579;43.238;23.124;2024-02-04T04:51:50;97267.44;;;8.19;59.06
39411;BME280;26579;43.238;23.124;2024-02-04T04:54:16;97273.47;;;8.19;58.94
39411;BME280;26579;43.238;23.124;2024-02-04T04:56:41;97273.47;;;8.19;59.03
39411;BME280;26579;43.238;23.124;2024-02-04T04:59:07;97290.59;;;8.22;58.98
39411;BME280;26579;43.238;23.124;2024-02-04T05:01:33;97292.56;;;8.18;59.13
39411;BME280;26579;43.238;23.124;2024-02-04T05:03:59;97301.25;;;8.17;59.21
39411;BME280;26579;43.238;23.124;2024-02-04T05:06:25;97286.63;;;8.16;59.24
39411;BME280;26579;43.238;23.124;2024-02-04T05:08:51;97275.63;;;8.12;59.61
39411;BME280;26579;43.238;23.124;2024-02-04T05:11:16;97291.00;;;8.15;59.32
39411;BME280;26579;43.238;23.124;2024-02-04T05:13:42;97287.13;;;8.08;59.46
39411;BME280;26579;43.238;23.124;2024-02-04T05:16:07;97281.75;;;8.11;59.59
39411;BME280;26579;43.238;23.124;2024-02-04T05:18:33;97297.84;;;8.16;59.80
39411;BME280;26579;43.238;23.124;2024-02-04T05:21:01;97289.63;;;8.10;59.60
39411;BME280;26579;43.238;23.124;2024-02-04T05:23:27;97292.94;;;7.99;60.16
39411;BME280;26579;43.238;23.124;2024-02-04T05:25:52;97305.88;;;7.99;60.46
39411;BME280;26579;43.238;23.124;2024-02-04T05:28:18;97290.94;;;7.90;61.12
39411;BME280;26579;43.238;23.124;2024-02-04T05:30:44;97293.00;;;7.85;61.34
39411;BME280;26579;43.238;23.124;2024-02-04T05:33:13;97322.06;;;7.90;61.17
39411;BME280;26579;43.238;23.124;2024-02-04T05:35:39;97311.41;;;7.94;60.90
39411;BME280;26579;43.238;23.124;2024-02-04T05:38:04;97334.41;;;7.99;61.05
39411;BME280;26579;43.238;23.124;2024-02-04T05:40:30;97328.53;;;7.97;61.21
39411;BME280;26579;43.238;23.124;2024-02-04T05:42:56;97334.00;;;7.92;61.24
39411;BME280;26579;43.238;23.124;2024-02-04T05:45:21;97329.22;;;7.99;61.18
39411;BME280;26579;43.238;23.124;2024-02-04T05:47:47;97328.19;;;8.02;61.15
39411;BME280;26579;43.238;23.124;2024-02-04T05:50:13;97325.72;;;8.00;60.78
39411;BME280;26579;43.238;23.124;2024-02-04T05:52:39;97335.78;;;8.05;60.85
39411;BME280;26579;43.238;23.124;2024-02-04T05:55:10;97327.25;;;8.03;61.07
39411;BME280;26579;43.238;23.124;2024-02-04T05:57:35;97329.75;;;8.04;61.19
39411;BME280;26579;43.238;23.124;2024-02-04T06:00:01;97345.13;;;8.07;60.65
39411;BME280;26579;43.238;23.124;2024-02-04T06:02:27;97348.94;;;8.02;61.25
39411;BME280;26579;43.238;23.124;2024-02-04T06:04:53;97347.09;;;8.04;61.30
39411;BME280;26579;43.238;23.124;2024-02-04T06:07:18;97348.53;;;8.08;61.03
39411;BME280;26579;43.238;23.124;2024-02-04T06:09:44;97339.94;;;8.07;61.13
39411;BME280;26579;43.238;23.124;2024-02-04T06:12:09;97341.66;;;7.94;61.31
39411;BME280;26579;43.238;23.124;2024-02-04T06:14:35;97353.53;;;8.11;61.54
39411;BME280;26579;43.238;23.124;2024-02-04T06:17:01;97355.34;;;8.23;61.39
39411;BME280;26579;43.238;23.124;2024-02-04T06:19:26;97354.69;;;8.20;61.33
39411;BME280;26579;43.238;23.124;2024-02-04T06:21:52;97361.56;;;8.33;61.20
39411;BME280;26579;43.238;23.124;2024-02-04T06:24:18;97354.16;;;8.42;61.01
39411;BME280;26579;43.238;23.124;2024-02-04T06:26:43;97366.78;;;8.46;60.88
39411;BME280;26579;43.238;23.124;2024-02-04T06:29:10;97364.53;;;8.54;60.33
39411;BME280;26579;43.238;23.124;2024-02-04T06:31:35;97367.75;;;8.71;60.54
39411;BME280;26579;43.238;23.124;2024-02-04T06:34:01;97369.75;;;8.80;60.08
39411;BME280;26579;43.238;23.124;2024-02-04T06:36:26;97379.63;;;8.88;59.78
39411;BME280;26579;43.238;23.124;2024-02-04T06:38:52;97367.03;;;8.94;59.43
39411;BME280;26579;43.238;23.124;2024-02-04T06:41:18;97377.22;;;8.97;59.83
39411;BME280;26579;43.238;23.124;2024-02-04T06:43:43;97366.09;;;8.95;59.75
39411;BME280;26579;43.238;23.124;2024-02-04T06:46:09;97365.88;;;8.98;59.63
39411;BME280;26579;43.238;23.124;2024-02-04T06:48:35;97370.66;;;9.04;59.77
39411;BME280;26579;43.238;23.124;2024-02-04T06:51:00;97367.66;;;8.98;59.47
39411;BME280;26579;43.238;23.124;2024-02-04T06:53:26;97355.00;;;8.93;60.00
39411;BME280;26579;43.238;23.124;2024-02-04T06:55:51;97361.50;;;9.12;59.93
39411;BME280;26579;43.238;23.124;2024-02-04T06:58:17;97367.72;;;9.22;59.52
39411;BME280;26579;43.238;23.124;2024-02-04T07:00:43;97365.53;;;9.28;59.62
39411;BME280;26579;43.238;23.124;2024-02-04T07:03:08;97364.28;;;9.34;59.65
39411;BME280;26579;43.238;23.124;2024-02-04T07:05:34;97370.38;;;9.46;59.42
39411;BME280;26579;43.238;23.124;2024-02-04T07:08:00;97367.06;;;9.44;59.10
39411;BME280;26579;43.238;23.124;2024-02-04T07:10:25;97375.16;;;9.52;59.20
39411;BME280;26579;43.238;23.124;2024-02-04T07:12:51;97364.53;;;9.55;59.48
39411;BME280;26579;43.238;23.124;2024-02-04T07:15:17;97371.59;;;9.66;58.95
39411;BME280;26579;43.238;23.124;2024-02-04T07:17:42;97371.63;;;9.77;59.10
39411;BME280;26579;43.238;23.124;2024-02-04T07:20:08;97368.78;;;9.80;58.50
39411;BME280;26579;43.238;23.124;2024-02-04T07:22:34;97382.44;;;9.84;58.47
39411;BME280;26579;43.238;23.124;2024-02-04T07:24:59;97392.22;;;10.04;58.05
39411;BME280;26579;43.238;23.124;2024-02-04T07:27:25;97390.59;;;10.14;58.26
39411;BME280;26579;43.238;23.124;2024-02-04T07:57:20;97373.69;;;11.58;53.25
39411;BME280;26579;43.238;23.124;2024-02-04T07:59:46;97387.03;;;11.76;52.82
39411;BME280;26579;43.238;23.124;2024-02-04T08:02:11;97365.94;;;11.90;52.51
39411;BME280;26579;43.238;23.124;2024-02-04T08:04:40;97381.09;;;11.85;51.07
39411;BME280;26579;43.238;23.124;2024-02-04T08:07:06;97365.47;;;11.85;50.49
39411;BME280;26579;43.238;23.124;2024-02-04T08:09:32;97362.06;;;12.06;51.50
39411;BME280;26579;43.238;23.124;2024-02-04T08:11:57;97355.09;;;12.27;51.94
39411;BME280;26579;43.238;23.124;2024-02-04T08:14:23;97349.44;;;12.43;48.91
39411;BME280;26579;43.238;23.124;2024-02-04T08:16:49;97352.31;;;12.61;49.18
39411;BME280;26579;43.238;23.124;2024-02-04T08:19:15;97364.22;;;12.75;49.99
39411;BME280;26579;43.238;23.124;2024-02-04T08:21:40;97355.59;;;12.84;47.19
39411;BME280;26579;43.238;23.124;2024-02-04T08:24:06;97336.69;;;12.91;47.04
39411;BME280;26579;43.238;23.124;2024-02-04T08:26:32;97344.84;;;13.08;46.44
39411;BME280;26579;43.238;23.124;2024-02-04T08:28:59;97345.53;;;13.41;45.86
39411;BME280;26579;43.238;23.124;2024-02-04T08:31:25;97343.84;;;13.70;44.71
39411;BME280;26579;43.238;23.124;2024-02-04T08:33:50;97342.31;;;13.87;44.54
39411;BME280;26579;43.238;23.124;2024-02-04T08:36:16;97344.81;;;13.79;44.47
39411;BME280;26579;43.238;23.124;2024-02-04T08:38:42;97354.84;;;13.74;44.65
39411;BME280;26579;43.238;23.124;2024-02-04T08:41:07;97360.47;;;13.59;44.58
39411;BME280;26579;43.238;23.124;2024-02-04T08:43:33;97363.56;;;13.44;45.12
39411;BME280;26579;43.238;23.124;2024-02-04T08:45:58;97381.06;;;13.43;45.07
39411;BME280;26579;43.238;23.124;2024-02-04T08:48:24;97376.34;;;13.27;45.66
39411;BME280;26579;43.238;23.124;2024-02-04T08:50:50;97372.16;;;13.25;45.84
39411;BME280;26579;43.238;23.124;2024-02-04T08:53:15;97385.75;;;13.19;45.63
39411;BME280;26579;43.238;23.124;2024-02-04T08:55:41;97393.06;;;13.25;46.04
39411;BME280;26579;43.238;23.124;2024-02-04T08:58:07;97381.31;;;13.30;45.79
39411;BME280;26579;43.238;23.124;2024-02-04T09:00:35;97392.34;;;13.44;45.28
39411;BME280;26579;43.238;23.124;2024-02-04T09:03:01;97382.28;;;13.39;45.08
39411;BME280;26579;43.238;23.124;2024-02-04T09:05:26;97370.97;;;13.79;44.51
39411;BME280;26579;43.238;23.124;2024-02-04T09:07:52;97352.78;;;13.77;43.59
39411;BME280;26579;43.238;23.124;2024-02-04T09:10:17;97357.97;;;13.58;43.69
39411;BME280;26579;43.238;23.124;2024-02-04T09:12:43;97381.41;;;13.69;43.98
39411;BME280;26579;43.238;23.124;2024-02-04T09:15:09;97370.94;;;13.69;43.73
39411;BME280;26579;43.238;23.124;2024-02-04T09:17:35;97387.72;;;13.67;43.99
39411;BME280;26579;43.238;23.124;2024-02-04T09:20:00;97386.47;;;13.61;44.34
39411;BME280;26579;43.238;23.124;2024-02-04T09:22:26;97394.19;;;13.53;44.65
39411;BME280;26579;43.238;23.124;2024-02-04T09:24:52;97388.09;;;13.52;44.55
39411;BME280;26579;43.238;23.124;2024-02-04T09:27:17;97401.44;;;13.49;44.49
39411;BME280;26579;43.238;23.124;2024-02-04T09:29:43;97394.88;;;13.55;44.52
39411;BME280;26579;43.238;23.124;2024-02-04T09:32:09;97387.19;;;13.73;44.32
39411;BME280;26579;43.238;23.124;2024-02-04T09:34:37;97390.09;;;13.70;44.39
39411;BME280;26579;43.238;23.124;2024-02-04T09:37:03;97391.06;;;13.69;44.30
39411;BME280;26579;43.238;23.124;2024-02-04T09:39:28;97393.22;;;13.64;44.49
39411;BME280;26579;43.238;23.124;2024-02-04T09:41:55;97375.19;;;13.51;44.81
39411;BME280;26579;43.238;23.124;2024-02-04T09:44:23;97404.13;;;13.59;44.97
39411;BME280;26579;43.238;23.124;2024-02-04T09:46:49;97413.25;;;13.44;45.04
39411;BME280;26579;43.238;23.124;2024-02-04T09:49:16;97412.84;;;13.39;45.26
39411;BME280;26579;43.238;23.124;2024-02-04T09:51:42;97403.34;;;13.38;45.37
39411;BME280;26579;43.238;23.124;2024-02-04T09:54:11;97403.34;;;13.38;45.03
39411;BME280;26579;43.238;23.124;2024-02-04T09:56:38;97401.66;;;13.27;45.47
39411;BME280;26579;43.238;23.124;2024-02-04T09:59:04;97392.38;;;13.23;45.70
39411;BME280;26579;43.238;23.124;2024-02-04T10:01:31;97397.38;;;13.26;45.58
39411;BME280;26579;43.238;23.124;2024-02-04T10:03:58;97399.97;;;13.26;45.86
39411;BME280;26579;43.238;23.124;2024-02-04T10:06:24;97393.66;;;13.28;45.67
39411;BME280;26579;43.238;23.124;2024-02-04T10:08:50;97386.19;;;13.24;45.73
39411;BME280;26579;43.238;23.124;2024-02-04T10:11:16;97400.44;;;13.31;45.84
39411;BME280;26579;43.238;23.124;2024-02-04T10:13:47;97393.56;;;13.30;45.52
39411;BME280;26579;43.238;23.124;2024-02-04T10:16:15;97387.34;;;13.31;45.44
39411;BME280;26579;43.238;23.124;2024-02-04T10:18:44;97378.38;;;13.24;45.82
39411;BME280;26579;43.238;23.124;2024-02-04T10:21:17;97375.16;;;13.20;45.56
39411;BME280;26579;43.238;23.124;2024-02-04T10:23:44;97378.81;;;13.29;45.35
39411;BME280;26579;43.238;23.124;2024-02-04T10:26:10;97391.19;;;13.27;45.80
39411;BME280;26579;43.238;23.124;2024-02-04T10:28:37;97390.66;;;13.33;45.58
39411;BME280;26579;43.238;23.124;2024-02-04T10:31:04;97391.22;;;13.36;45.79
39411;BME280;26579;43.238;23.124;2024-02-04T10:33:30;97379.78;;;13.38;45.80
39411;BME280;26579;43.238;23.124;2024-02-04T10:35:57;97377.06;;;13.39;45.76
39411;BME280;26579;43.238;23.124;2024-02-04T10:38:23;97361.81;;;13.44;45.62
39411;BME280;26579;43.238;23.124;2024-02-04T10:40:53;97358.50;;;13.52;45.55
39411;BME280;26579;43.238;23.124;2024-02-04T10:43:20;97343.53;;;13.64;45.21
39411;BME280;26579;43.238;23.124;2024-02-04T10:45:47;97357.75;;;13.71;44.91
39411;BME280;26579;43.238;23.124;2024-02-04T10:48:15;97340.69;;;13.76;44.41
39411;BME280;26579;43.238;23.124;2024-02-04T10:50:47;97341.38;;;13.88;44.02
